sensor_id;sensor_type;location;lat;lon;timestamp;P1;durP1;ratioP1;P2;durP2;ratioP2
15667;SDS011;7934;48.710;9.024;2022-08-19T00:00:00;16.63;;;12.87;;
15667;SDS011;7934;48.710;9.024;2022-08-19T00:02:28;14.70;;;13.30;;
15667;SDS011;7934;48.710;9.024;2022-08-19T00:04:55;15.77;;;14.20;;
15667;SDS011;7934;48.710;9.024;2022-08-19T00:07:22;15.97;;;14.47;;
15667;SDS011;7934;48.710;9.024;2022-08-19T00:09:50;15.47;;;13.93;;
15667;SDS011;7934;48.710;9.024;2022-08-19T00:12:17;14.83;;;13.23;;
15667;SDS011;7934;48.710;9.024;2022-08-19T00:14:44;19.73;;;14.80;;
15667;SDS011;7934;48.710;9.024;2022-08-19T00:17:12;21.37;;;14.63;;
15667;SDS011;7934;48.710;9.024;2022-08-19T00:19:39;17.43;;;13.97;;
15667;SDS011;7934;48.710;9.024;2022-08-19T00:22:06;15.90;;;14.13;;
15667;SDS011;7934;48.710;9.024;2022-08-19T00:24:34;17.73;;;13.90;;
15667;SDS011;7934;48.710;9.024;2022-08-19T00:27:04;18.80;;;15.63;;
15667;SDS011;7934;48.710;9.024;2022-08-19T00:29:32;16.57;;;14.80;;
15667;SDS011;7934;48.710;9.024;2022-08-19T00:31:59;16.00;;;13.90;;
15667;SDS011;7934;48.710;9.024;2022-08-19T00:34:26;16.70;;;15.00;;
15667;SDS011;7934;48.710;9.024;2022-08-19T00:36:54;18.43;;;15.27;;
15667;SDS011;7934;48.710;9.024;2022-08-19T00:39:22;17.17;;;14.90;;
15667;SDS011;7934;48.710;9.024;2022-08-19T00:41:49;18.13;;;15.30;;
15667;SDS011;7934;48.710;9.024;2022-08-19T00:44:19;16.93;;;15.13;;
15667;SDS011;7934;48.710;9.024;2022-08-19T00:46:48;22.93;;;16.10;;
15667;SDS011;7934;48.710;9.024;2022-08-19T00:49:16;19.40;;;15.97;;
15667;SDS011;7934;48.710;9.024;2022-08-19T00:51:46;21.57;;;16.10;;
15667;SDS011;7934;48.710;9.024;2022-08-19T00:54:14;19.13;;;15.20;;
15667;SDS011;7934;48.710;9.024;2022-08-19T00:56:42;18.00;;;15.50;;
15667;SDS011;7934;48.710;9.024;2022-08-19T00:59:09;21.20;;;16.30;;
15667;SDS011;7934;48.710;9.024;2022-08-19T01:01:38;17.40;;;15.57;;
15667;SDS011;7934;48.710;9.024;2022-08-19T01:04:06;18.43;;;15.50;;
15667;SDS011;7934;48.710;9.024;2022-08-19T01:06:33;20.30;;;15.20;;
15667;SDS011;7934;48.710;9.024;2022-08-19T01:09:02;17.87;;;15.97;;
15667;SDS011;7934;48.710;9.024;2022-08-19T01:11:29;18.60;;;16.57;;
15667;SDS011;7934;48.710;9.024;2022-08-19T01:13:57;18.93;;;16.60;;
15667;SDS011;7934;48.710;9.024;2022-08-19T01:16:25;22.17;;;16.63;;
15667;SDS011;7934;48.710;9.024;2022-08-19T01:18:54;18.37;;;16.47;;
15667;SDS011;7934;48.710;9.024;2022-08-19T01:21:24;22.57;;;17.57;;
15667;SDS011;7934;48.710;9.024;2022-08-19T01:23:54;18.87;;;16.50;;
15667;SDS011;7934;48.710;9.024;2022-08-19T01:26:23;19.87;;;16.63;;
15667;SDS011;7934;48.710;9.024;2022-08-19T01:28:51;23.57;;;17.20;;
15667;SDS011;7934;48.710;9.024;2022-08-19T01:31:21;18.80;;;16.23;;
15667;SDS011;7934;48.710;9.024;2022-08-19T01:33:48;21.40;;;17.13;;
15667;SDS011;7934;48.710;9.024;2022-08-19T01:36:19;22.20;;;16.43;;
15667;SDS011;7934;48.710;9.024;2022-08-19T01:38:48;19.63;;;16.23;;
15667;SDS011;7934;48.710;9.024;2022-08-19T01:41:17;19.83;;;16.77;;
15667;SDS011;7934;48.710;9.024;2022-08-19T01:43:45;22.60;;;17.87;;
15667;SDS011;7934;48.710;9.024;2022-08-19T01:46:12;22.27;;;17.20;;
15667;SDS011;7934;48.710;9.024;2022-08-19T01:48:41;21.97;;;17.43;;
15667;SDS011;7934;48.710;9.024;2022-08-19T01:51:08;23.67;;;18.73;;
15667;SDS011;7934;48.710;9.024;2022-08-19T01:53:36;24.77;;;19.30;;
15667;SDS011;7934;48.710;9.024;2022-08-19T01:56:04;27.00;;;19.60;;
15667;SDS011;7934;48.710;9.024;2022-08-19T01:58:35;24.63;;;19.87;;
15667;SDS011;7934;48.710;9.024;2022-08-19T02:01:03;22.53;;;19.17;;
15667;SDS011;7934;48.710;9.024;2022-08-19T02:03:30;22.87;;;18.87;;
15667;SDS011;7934;48.710;9.024;2022-08-19T02:05:59;23.77;;;19.33;;
15667;SDS011;7934;48.710;9.024;2022-08-19T02:08:28;26.47;;;19.27;;
15667;SDS011;7934;48.710;9.024;2022-08-19T02:10:55;23.70;;;18.70;;
15667;SDS011;7934;48.710;9.024;2022-08-19T02:13:23;23.00;;;19.70;;
15667;SDS011;7934;48.710;9.024;2022-08-19T02:15:52;24.87;;;20.17;;
15667;SDS011;7934;48.710;9.024;2022-08-19T02:18:19;26.97;;;20.87;;
15667;SDS011;7934;48.710;9.024;2022-08-19T02:20:46;24.80;;;19.37;;
15667;SDS011;7934;48.710;9.024;2022-08-19T02:23:14;22.63;;;18.20;;
15667;SDS011;7934;48.710;9.024;2022-08-19T02:25:42;25.30;;;19.07;;
15667;SDS011;7934;48.710;9.024;2022-08-19T02:28:10;24.17;;;19.80;;
15667;SDS011;7934;48.710;9.024;2022-08-19T02:30:37;25.47;;;19.67;;
15667;SDS011;7934;48.710;9.024;2022-08-19T02:33:06;23.90;;;19.33;;
15667;SDS011;7934;48.710;9.024;2022-08-19T02:35:33;24.33;;;19.97;;
15667;SDS011;7934;48.710;9.024;2022-08-19T02:38:00;24.10;;;20.20;;
15667;SDS011;7934;48.710;9.024;2022-08-19T02:40:47;23.90;;;19.40;;
15667;SDS011;7934;48.710;9.024;2022-08-19T02:43:16;22.53;;;19.43;;
15667;SDS011;7934;48.710;9.024;2022-08-19T02:45:45;24.03;;;19.30;;
15667;SDS011;7934;48.710;9.024;2022-08-19T02:48:14;24.43;;;19.07;;
15667;SDS011;7934;48.710;9.024;2022-08-19T02:50:42;25.43;;;19.63;;
15667;SDS011;7934;48.710;9.024;2022-08-19T02:53:09;26.80;;;21.40;;
15667;SDS011;7934;48.710;9.024;2022-08-19T02:55:42;25.87;;;19.57;;
15667;SDS011;7934;48.710;9.024;2022-08-19T02:58:09;25.60;;;20.53;;
15667;SDS011;7934;48.710;9.024;2022-08-19T03:00:40;26.40;;;21.23;;
15667;SDS011;7934;48.710;9.024;2022-08-19T03:03:08;24.03;;;19.43;;
15667;SDS011;7934;48.710;9.024;2022-08-19T03:05:36;22.93;;;20.47;;
15667;SDS011;7934;48.710;9.024;2022-08-19T03:08:04;25.77;;;20.77;;
15667;SDS011;7934;48.710;9.024;2022-08-19T03:10:31;26.63;;;21.07;;
15667;SDS011;7934;48.710;9.024;2022-08-19T03:12:58;26.57;;;20.70;;
15667;SDS011;7934;48.710;9.024;2022-08-19T03:15:25;28.30;;;21.60;;
15667;SDS011;7934;48.710;9.024;2022-08-19T03:17:52;28.47;;;21.27;;
15667;SDS011;7934;48.710;9.024;2022-08-19T03:20:19;31.07;;;21.83;;
15667;SDS011;7934;48.710;9.024;2022-08-19T03:22:48;26.27;;;21.80;;
15667;SDS011;7934;48.710;9.024;2022-08-19T03:25:15;27.70;;;22.10;;
15667;SDS011;7934;48.710;9.024;2022-08-19T03:27:42;27.57;;;21.63;;
15667;SDS011;7934;48.710;9.024;2022-08-19T03:30:10;27.87;;;21.73;;
15667;SDS011;7934;48.710;9.024;2022-08-19T03:32:38;26.80;;;22.13;;
15667;SDS011;7934;48.710;9.024;2022-08-19T03:35:05;28.80;;;21.93;;
15667;SDS011;7934;48.710;9.024;2022-08-19T03:37:33;30.63;;;23.10;;
15667;SDS011;7934;48.710;9.024;2022-08-19T03:40:02;29.50;;;23.93;;
15667;SDS011;7934;48.710;9.024;2022-08-19T03:42:29;25.47;;;22.33;;
15667;SDS011;7934;48.710;9.024;2022-08-19T03:44:56;27.43;;;22.50;;
15667;SDS011;7934;48.710;9.024;2022-08-19T03:47:24;28.20;;;22.67;;
15667;SDS011;7934;48.710;9.024;2022-08-19T03:49:51;28.67;;;23.03;;
15667;SDS011;7934;48.710;9.024;2022-08-19T03:52:18;28.57;;;23.37;;
15667;SDS011;7934;48.710;9.024;2022-08-19T03:54:45;30.77;;;24.07;;
15667;SDS011;7934;48.710;9.024;2022-08-19T03:57:13;32.67;;;23.77;;
15667;SDS011;7934;48.710;9.024;2022-08-19T03:59:41;28.03;;;22.70;;
15667;SDS011;7934;48.710;9.024;2022-08-19T04:02:09;30.73;;;22.47;;
15667;SDS011;7934;48.710;9.024;2022-08-19T04:04:36;29.67;;;23.13;;
15667;SDS011;7934;48.710;9.024;2022-08-19T04:07:04;30.07;;;24.47;;
15667;SDS011;7934;48.710;9.024;2022-08-19T04:09:32;32.13;;;24.40;;
15667;SDS011;7934;48.710;9.024;2022-08-19T04:12:00;31.37;;;24.60;;
15667;SDS011;7934;48.710;9.024;2022-08-19T04:14:29;29.87;;;24.60;;
15667;SDS011;7934;48.710;9.024;2022-08-19T04:16:56;31.63;;;24.90;;
15667;SDS011;7934;48.710;9.024;2022-08-19T04:19:24;29.37;;;23.83;;
15667;SDS011;7934;48.710;9.024;2022-08-19T04:21:52;29.93;;;24.57;;
15667;SDS011;7934;48.710;9.024;2022-08-19T04:24:19;28.83;;;24.27;;
15667;SDS011;7934;48.710;9.024;2022-08-19T04:26:46;30.30;;;24.90;;
15667;SDS011;7934;48.710;9.024;2022-08-19T04:29:15;31.23;;;24.20;;
15667;SDS011;7934;48.710;9.024;2022-08-19T04:31:45;30.57;;;24.57;;
15667;SDS011;7934;48.710;9.024;2022-08-19T04:34:13;29.33;;;24.53;;
15667;SDS011;7934;48.710;9.024;2022-08-19T04:36:41;29.80;;;24.23;;
15667;SDS011;7934;48.710;9.024;2022-08-19T04:39:10;29.07;;;23.73;;
15667;SDS011;7934;48.710;9.024;2022-08-19T04:41:37;28.97;;;23.23;;
15667;SDS011;7934;48.710;9.024;2022-08-19T04:44:22;33.67;;;25.33;;
15667;SDS011;7934;48.710;9.024;2022-08-19T04:46:50;28.13;;;24.27;;
15667;SDS011;7934;48.710;9.024;2022-08-19T04:49:18;31.87;;;25.57;;
15667;SDS011;7934;48.710;9.024;2022-08-19T04:51:46;28.27;;;24.03;;
15667;SDS011;7934;48.710;9.024;2022-08-19T04:54:14;31.37;;;24.57;;
15667;SDS011;7934;48.710;9.024;2022-08-19T04:56:42;33.83;;;24.47;;
15667;SDS011;7934;48.710;9.024;2022-08-19T04:59:09;29.13;;;23.93;;
15667;SDS011;7934;48.710;9.024;2022-08-19T05:01:37;30.67;;;24.50;;
15667;SDS011;7934;48.710;9.024;2022-08-19T05:04:06;35.07;;;26.53;;
15667;SDS011;7934;48.710;9.024;2022-08-19T05:06:33;34.13;;;25.03;;
15667;SDS011;7934;48.710;9.024;2022-08-19T05:09:01;30.60;;;24.20;;
15667;SDS011;7934;48.710;9.024;2022-08-19T05:11:30;29.87;;;23.77;;
15667;SDS011;7934;48.710;9.024;2022-08-19T05:13:57;34.20;;;24.90;;
15667;SDS011;7934;48.710;9.024;2022-08-19T05:16:25;34.07;;;25.67;;
15667;SDS011;7934;48.710;9.024;2022-08-19T05:18:52;31.87;;;25.50;;
15667;SDS011;7934;48.710;9.024;2022-08-19T05:21:39;32.70;;;25.67;;
15667;SDS011;7934;48.710;9.024;2022-08-19T05:24:25;33.10;;;25.60;;
15667;SDS011;7934;48.710;9.024;2022-08-19T05:26:52;30.80;;;25.63;;
15667;SDS011;7934;48.710;9.024;2022-08-19T05:29:21;31.07;;;24.70;;
15667;SDS011;7934;48.710;9.024;2022-08-19T05:31:49;36.57;;;24.90;;
15667;SDS011;7934;48.710;9.024;2022-08-19T05:34:16;30.23;;;23.93;;
15667;SDS011;7934;48.710;9.024;2022-08-19T05:36:48;31.93;;;26.23;;
15667;SDS011;7934;48.710;9.024;2022-08-19T05:39:17;32.23;;;25.17;;
15667;SDS011;7934;48.710;9.024;2022-08-19T05:41:45;30.80;;;24.77;;
15667;SDS011;7934;48.710;9.024;2022-08-19T05:44:13;28.87;;;25.07;;
15667;SDS011;7934;48.710;9.024;2022-08-19T05:46:42;30.57;;;24.50;;
15667;SDS011;7934;48.710;9.024;2022-08-19T05:49:12;27.13;;;22.63;;
15667;SDS011;7934;48.710;9.024;2022-08-19T05:51:40;28.93;;;24.47;;
15667;SDS011;7934;48.710;9.024;2022-08-19T05:54:08;28.73;;;24.20;;
15667;SDS011;7934;48.710;9.024;2022-08-19T05:56:38;31.00;;;22.70;;
15667;SDS011;7934;48.710;9.024;2022-08-19T05:59:06;28.27;;;23.67;;
15667;SDS011;7934;48.710;9.024;2022-08-19T06:01:34;27.77;;;23.57;;
15667;SDS011;7934;48.710;9.024;2022-08-19T06:04:02;28.80;;;23.47;;
15667;SDS011;7934;48.710;9.024;2022-08-19T06:06:29;28.43;;;23.50;;
15667;SDS011;7934;48.710;9.024;2022-08-19T06:08:59;29.20;;;23.60;;
15667;SDS011;7934;48.710;9.024;2022-08-19T06:11:33;28.93;;;23.83;;
15667;SDS011;7934;48.710;9.024;2022-08-19T06:14:02;29.53;;;23.17;;
15667;SDS011;7934;48.710;9.024;2022-08-19T06:16:29;35.07;;;24.67;;
15667;SDS011;7934;48.710;9.024;2022-08-19T06:18:56;31.90;;;25.63;;
15667;SDS011;7934;48.710;9.024;2022-08-19T06:21:25;26.50;;;23.60;;
15667;SDS011;7934;48.710;9.024;2022-08-19T06:23:53;29.90;;;23.57;;
15667;SDS011;7934;48.710;9.024;2022-08-19T06:26:21;31.13;;;24.03;;
15667;SDS011;7934;48.710;9.024;2022-08-19T06:28:50;31.10;;;23.87;;
15667;SDS011;7934;48.710;9.024;2022-08-19T06:31:20;29.83;;;23.27;;
15667;SDS011;7934;48.710;9.024;2022-08-19T06:33:47;28.07;;;22.63;;
15667;SDS011;7934;48.710;9.024;2022-08-19T06:36:18;25.70;;;22.93;;
15667;SDS011;7934;48.710;9.024;2022-08-19T06:38:46;28.23;;;24.07;;
15667;SDS011;7934;48.710;9.024;2022-08-19T06:41:13;28.73;;;23.13;;
15667;SDS011;7934;48.710;9.024;2022-08-19T06:43:40;26.67;;;22.03;;
15667;SDS011;7934;48.710;9.024;2022-08-19T06:46:13;26.13;;;22.07;;
15667;SDS011;7934;48.710;9.024;2022-08-19T06:48:41;26.07;;;21.57;;
15667;SDS011;7934;48.710;9.024;2022-08-19T06:51:08;26.20;;;22.57;;
15667;SDS011;7934;48.710;9.024;2022-08-19T06:53:35;24.93;;;21.40;;
15667;SDS011;7934;48.710;9.024;2022-08-19T06:56:04;24.77;;;21.80;;
15667;SDS011;7934;48.710;9.024;2022-08-19T06:58:31;24.40;;;20.80;;
15667;SDS011;7934;48.710;9.024;2022-08-19T07:00:59;26.37;;;21.53;;
15667;SDS011;7934;48.710;9.024;2022-08-19T07:03:30;21.87;;;19.57;;
15667;SDS011;7934;48.710;9.024;2022-08-19T07:05:57;24.52;;;21.85;;
15667;SDS011;7934;48.710;9.024;2022-08-19T07:08:25;24.30;;;20.80;;
15667;SDS011;7934;48.710;9.024;2022-08-19T07:10:52;23.10;;;20.47;;
15667;SDS011;7934;48.710;9.024;2022-08-19T07:13:19;25.40;;;20.33;;
15667;SDS011;7934;48.710;9.024;2022-08-19T07:15:47;25.80;;;21.30;;
15667;SDS011;7934;48.710;9.024;2022-08-19T07:18:15;24.02;;;21.65;;
15667;SDS011;7934;48.710;9.024;2022-08-19T07:20:44;22.13;;;19.80;;
15667;SDS011;7934;48.710;9.024;2022-08-19T07:23:11;26.57;;;20.83;;
15667;SDS011;7934;48.710;9.024;2022-08-19T07:25:38;21.90;;;19.37;;
15667;SDS011;7934;48.710;9.024;2022-08-19T07:28:06;23.10;;;19.87;;
15667;SDS011;7934;48.710;9.024;2022-08-19T07:30:35;22.43;;;19.60;;
15667;SDS011;7934;48.710;9.024;2022-08-19T07:33:03;22.33;;;19.50;;
15667;SDS011;7934;48.710;9.024;2022-08-19T07:35:31;23.03;;;18.83;;
15667;SDS011;7934;48.710;9.024;2022-08-19T07:38:00;20.73;;;18.03;;
15667;SDS011;7934;48.710;9.024;2022-08-19T07:40:28;21.13;;;18.77;;
15667;SDS011;7934;48.710;9.024;2022-08-19T07:42:56;24.93;;;18.03;;
15667;SDS011;7934;48.710;9.024;2022-08-19T07:45:23;21.97;;;18.67;;
15667;SDS011;7934;48.710;9.024;2022-08-19T07:47:50;22.77;;;19.20;;
15667;SDS011;7934;48.710;9.024;2022-08-19T07:50:18;23.23;;;18.60;;
15667;SDS011;7934;48.710;9.024;2022-08-19T07:52:46;23.23;;;19.53;;
15667;SDS011;7934;48.710;9.024;2022-08-19T07:55:16;20.17;;;18.10;;
15667;SDS011;7934;48.710;9.024;2022-08-19T07:57:44;20.57;;;18.37;;
15667;SDS011;7934;48.710;9.024;2022-08-19T08:00:11;21.20;;;18.13;;
15667;SDS011;7934;48.710;9.024;2022-08-19T08:02:38;22.87;;;19.07;;
15667;SDS011;7934;48.710;9.024;2022-08-19T08:05:07;21.57;;;18.40;;
15667;SDS011;7934;48.710;9.024;2022-08-19T08:07:52;22.63;;;20.00;;
15667;SDS011;7934;48.710;9.024;2022-08-19T08:10:38;24.43;;;19.53;;
15667;SDS011;7934;48.710;9.024;2022-08-19T08:13:05;24.73;;;22.20;;
15667;SDS011;7934;48.710;9.024;2022-08-19T08:15:32;24.07;;;20.97;;
15667;SDS011;7934;48.710;9.024;2022-08-19T08:17:59;22.80;;;20.50;;
15667;SDS011;7934;48.710;9.024;2022-08-19T08:20:27;26.47;;;19.67;;
15667;SDS011;7934;48.710;9.024;2022-08-19T08:22:54;25.80;;;20.87;;
15667;SDS011;7934;48.710;9.024;2022-08-19T08:25:40;24.73;;;20.20;;
15667;SDS011;7934;48.710;9.024;2022-08-19T08:28:08;25.80;;;22.90;;
15667;SDS011;7934;48.710;9.024;2022-08-19T08:30:35;23.67;;;20.43;;
15667;SDS011;7934;48.710;9.024;2022-08-19T08:33:06;25.63;;;21.30;;
15667;SDS011;7934;48.710;9.024;2022-08-19T08:35:33;21.77;;;19.50;;
15667;SDS011;7934;48.710;9.024;2022-08-19T08:38:01;22.70;;;20.13;;
15667;SDS011;7934;48.710;9.024;2022-08-19T08:40:29;25.30;;;20.07;;
15667;SDS011;7934;48.710;9.024;2022-08-19T08:42:59;23.13;;;20.63;;
15667;SDS011;7934;48.710;9.024;2022-08-19T08:45:29;26.83;;;20.50;;
15667;SDS011;7934;48.710;9.024;2022-08-19T08:47:57;24.73;;;20.47;;
15667;SDS011;7934;48.710;9.024;2022-08-19T08:50:28;22.10;;;19.70;;
15667;SDS011;7934;48.710;9.024;2022-08-19T08:52:57;23.00;;;20.53;;
15667;SDS011;7934;48.710;9.024;2022-08-19T08:55:26;24.97;;;19.20;;
15667;SDS011;7934;48.710;9.024;2022-08-19T08:57:55;20.77;;;18.57;;
15667;SDS011;7934;48.710;9.024;2022-08-19T09:00:29;22.47;;;18.33;;
15667;SDS011;7934;48.710;9.024;2022-08-19T09:02:58;21.87;;;19.00;;
15667;SDS011;7934;48.710;9.024;2022-08-19T09:05:26;23.83;;;17.97;;
15667;SDS011;7934;48.710;9.024;2022-08-19T09:07:56;22.67;;;17.40;;
15667;SDS011;7934;48.710;9.024;2022-08-19T09:10:27;19.83;;;17.33;;
15667;SDS011;7934;48.710;9.024;2022-08-19T09:12:57;19.40;;;17.17;;
15667;SDS011;7934;48.710;9.024;2022-08-19T09:15:28;20.87;;;17.07;;
15667;SDS011;7934;48.710;9.024;2022-08-19T09:17:58;18.93;;;16.60;;
15667;SDS011;7934;48.710;9.024;2022-08-19T09:20:26;19.77;;;17.17;;
15667;SDS011;7934;48.710;9.024;2022-08-19T09:22:55;19.53;;;17.40;;
15667;SDS011;7934;48.710;9.024;2022-08-19T09:25:23;19.53;;;15.87;;
15667;SDS011;7934;48.710;9.024;2022-08-19T09:27:51;19.77;;;16.43;;
15667;SDS011;7934;48.710;9.024;2022-08-19T09:30:20;21.57;;;16.93;;
15667;SDS011;7934;48.710;9.024;2022-08-19T09:32:50;20.83;;;17.50;;
15667;SDS011;7934;48.710;9.024;2022-08-19T09:35:18;22.67;;;17.00;;
15667;SDS011;7934;48.710;9.024;2022-08-19T09:37:47;23.10;;;16.30;;
15667;SDS011;7934;48.710;9.024;2022-08-19T09:40:15;21.60;;;16.73;;
15667;SDS011;7934;48.710;9.024;2022-08-19T09:42:42;21.03;;;16.03;;
15667;SDS011;7934;48.710;9.024;2022-08-19T09:45:12;16.90;;;15.30;;
15667;SDS011;7934;48.710;9.024;2022-08-19T09:47:39;18.97;;;16.60;;
15667;SDS011;7934;48.710;9.024;2022-08-19T09:50:09;17.83;;;14.87;;
15667;SDS011;7934;48.710;9.024;2022-08-19T09:52:37;17.33;;;15.20;;
15667;SDS011;7934;48.710;9.024;2022-08-19T09:55:04;18.90;;;16.40;;
15667;SDS011;7934;48.710;9.024;2022-08-19T09:57:32;17.27;;;15.17;;
15667;SDS011;7934;48.710;9.024;2022-08-19T09:59:59;20.53;;;14.30;;
15667;SDS011;7934;48.710;9.024;2022-08-19T10:02:26;17.90;;;16.02;;
15667;SDS011;7934;48.710;9.024;2022-08-19T10:04:53;19.93;;;15.93;;
15667;SDS011;7934;48.710;9.024;2022-08-19T10:07:40;17.77;;;16.00;;
15667;SDS011;7934;48.710;9.024;2022-08-19T10:10:07;16.30;;;14.77;;
15667;SDS011;7934;48.710;9.024;2022-08-19T10:12:35;19.97;;;15.17;;
15667;SDS011;7934;48.710;9.024;2022-08-19T10:15:03;18.47;;;14.20;;
15667;SDS011;7934;48.710;9.024;2022-08-19T10:17:31;15.30;;;13.63;;
15667;SDS011;7934;48.710;9.024;2022-08-19T10:20:00;16.13;;;13.53;;
15667;SDS011;7934;48.710;9.024;2022-08-19T10:22:29;14.60;;;12.77;;
15667;SDS011;7934;48.710;9.024;2022-08-19T10:24:57;13.93;;;12.30;;
15667;SDS011;7934;48.710;9.024;2022-08-19T10:27:24;13.63;;;12.37;;
15667;SDS011;7934;48.710;9.024;2022-08-19T10:29:51;13.10;;;11.83;;
15667;SDS011;7934;48.710;9.024;2022-08-19T10:32:19;13.73;;;12.30;;
15667;SDS011;7934;48.710;9.024;2022-08-19T10:34:46;14.57;;;12.90;;
15667;SDS011;7934;48.710;9.024;2022-08-19T10:37:14;15.03;;;11.50;;
15667;SDS011;7934;48.710;9.024;2022-08-19T10:39:42;12.60;;;11.07;;
15667;SDS011;7934;48.710;9.024;2022-08-19T10:42:14;12.53;;;11.30;;
15667;SDS011;7934;48.710;9.024;2022-08-19T10:44:41;12.03;;;10.80;;
15667;SDS011;7934;48.710;9.024;2022-08-19T10:47:09;11.57;;;10.37;;
15667;SDS011;7934;48.710;9.024;2022-08-19T10:49:36;12.57;;;11.00;;
15667;SDS011;7934;48.710;9.024;2022-08-19T10:52:23;11.83;;;10.57;;
15667;SDS011;7934;48.710;9.024;2022-08-19T10:54:58;12.18;;;11.00;;
15667;SDS011;7934;48.710;9.024;2022-08-19T10:57:45;10.37;;;9.50;;
15667;SDS011;7934;48.710;9.024;2022-08-19T11:00:12;10.03;;;9.13;;
15667;SDS011;7934;48.710;9.024;2022-08-19T11:02:39;9.70;;;8.53;;
15667;SDS011;7934;48.710;9.024;2022-08-19T11:05:07;10.77;;;9.10;;
15667;SDS011;7934;48.710;9.024;2022-08-19T11:07:36;10.17;;;8.40;;
15667;SDS011;7934;48.710;9.024;2022-08-19T11:10:04;11.63;;;10.43;;
15667;SDS011;7934;48.710;9.024;2022-08-19T11:12:31;11.23;;;10.13;;
15667;SDS011;7934;48.710;9.024;2022-08-19T11:14:59;11.47;;;9.93;;
15667;SDS011;7934;48.710;9.024;2022-08-19T11:17:27;14.30;;;11.07;;
15667;SDS011;7934;48.710;9.024;2022-08-19T11:19:56;11.80;;;10.70;;
15667;SDS011;7934;48.710;9.024;2022-08-19T11:22:29;11.17;;;10.20;;
15667;SDS011;7934;48.710;9.024;2022-08-19T11:24:56;10.90;;;9.63;;
15667;SDS011;7934;48.710;9.024;2022-08-19T11:27:23;10.60;;;9.50;;
15667;SDS011;7934;48.710;9.024;2022-08-19T11:29:50;10.93;;;9.93;;
15667;SDS011;7934;48.710;9.024;2022-08-19T11:32:20;11.20;;;10.30;;
15667;SDS011;7934;48.710;9.024;2022-08-19T11:34:47;11.40;;;10.33;;
15667;SDS011;7934;48.710;9.024;2022-08-19T11:37:14;11.73;;;9.83;;
15667;SDS011;7934;48.710;9.024;2022-08-19T11:39:41;10.67;;;9.67;;
15667;SDS011;7934;48.710;9.024;2022-08-19T11:42:08;10.00;;;9.10;;
15667;SDS011;7934;48.710;9.024;2022-08-19T11:44:53;10.27;;;9.27;;
15667;SDS011;7934;48.710;9.024;2022-08-19T11:47:22;10.23;;;8.93;;
15667;SDS011;7934;48.710;9.024;2022-08-19T11:49:49;9.63;;;8.67;;
15667;SDS011;7934;48.710;9.024;2022-08-19T11:52:18;9.23;;;8.30;;
15667;SDS011;7934;48.710;9.024;2022-08-19T11:54:45;9.00;;;8.10;;
15667;SDS011;7934;48.710;9.024;2022-08-19T11:57:12;8.33;;;7.63;;
15667;SDS011;7934;48.710;9.024;2022-08-19T11:59:41;8.67;;;7.93;;
15667;SDS011;7934;48.710;9.024;2022-08-19T12:02:08;8.50;;;7.60;;
15667;SDS011;7934;48.710;9.024;2022-08-19T12:04:38;8.60;;;7.70;;
15667;SDS011;7934;48.710;9.024;2022-08-19T12:07:05;8.97;;;7.77;;
15667;SDS011;7934;48.710;9.024;2022-08-19T12:09:32;8.27;;;7.47;;
15667;SDS011;7934;48.710;9.024;2022-08-19T12:12:00;8.10;;;7.40;;
15667;SDS011;7934;48.710;9.024;2022-08-19T12:14:27;7.73;;;7.13;;
15667;SDS011;7934;48.710;9.024;2022-08-19T12:16:55;7.00;;;6.40;;
15667;SDS011;7934;48.710;9.024;2022-08-19T12:19:23;7.43;;;6.73;;
15667;SDS011;7934;48.710;9.024;2022-08-19T12:21:52;6.53;;;5.97;;
15667;SDS011;7934;48.710;9.024;2022-08-19T12:24:21;7.37;;;6.77;;
15667;SDS011;7934;48.710;9.024;2022-08-19T12:26:49;7.00;;;6.40;;
15667;SDS011;7934;48.710;9.024;2022-08-19T12:29:17;6.73;;;6.23;;
15667;SDS011;7934;48.710;9.024;2022-08-19T12:31:44;6.43;;;5.83;;
15667;SDS011;7934;48.710;9.024;2022-08-19T12:34:11;10.30;;;6.20;;
15667;SDS011;7934;48.710;9.024;2022-08-19T12:36:38;6.13;;;5.63;;
15667;SDS011;7934;48.710;9.024;2022-08-19T12:39:07;6.70;;;5.60;;
15667;SDS011;7934;48.710;9.024;2022-08-19T12:41:34;7.30;;;4.97;;
15667;SDS011;7934;48.710;9.024;2022-08-19T12:44:01;6.70;;;6.00;;
15667;SDS011;7934;48.710;9.024;2022-08-19T12:46:28;6.13;;;5.73;;
15667;SDS011;7934;48.710;9.024;2022-08-19T12:48:56;5.70;;;5.20;;
15667;SDS011;7934;48.710;9.024;2022-08-19T12:51:23;5.87;;;5.47;;
15667;SDS011;7934;48.710;9.024;2022-08-19T12:53:51;6.20;;;5.80;;
15667;SDS011;7934;48.710;9.024;2022-08-19T12:56:20;6.63;;;6.03;;
15667;SDS011;7934;48.710;9.024;2022-08-19T12:58:47;7.13;;;6.17;;
15667;SDS011;7934;48.710;9.024;2022-08-19T13:01:15;6.20;;;5.73;;
15667;SDS011;7934;48.710;9.024;2022-08-19T13:03:44;6.53;;;6.00;;
15667;SDS011;7934;48.710;9.024;2022-08-19T13:06:11;6.07;;;5.63;;
15667;SDS011;7934;48.710;9.024;2022-08-19T13:08:40;5.93;;;5.33;;
15667;SDS011;7934;48.710;9.024;2022-08-19T13:11:08;6.67;;;6.00;;
15667;SDS011;7934;48.710;9.024;2022-08-19T13:13:38;5.90;;;5.60;;
15667;SDS011;7934;48.710;9.024;2022-08-19T13:16:06;7.10;;;6.40;;
15667;SDS011;7934;48.710;9.024;2022-08-19T13:18:33;7.53;;;6.10;;
15667;SDS011;7934;48.710;9.024;2022-08-19T13:21:01;6.33;;;5.60;;
15667;SDS011;7934;48.710;9.024;2022-08-19T13:23:29;10.17;;;5.60;;
15667;SDS011;7934;48.710;9.024;2022-08-19T13:25:57;9.83;;;6.13;;
15667;SDS011;7934;48.710;9.024;2022-08-19T13:28:24;5.73;;;5.43;;
15667;SDS011;7934;48.710;9.024;2022-08-19T13:30:52;5.83;;;5.40;;
15667;SDS011;7934;48.710;9.024;2022-08-19T13:33:37;6.47;;;6.03;;
15667;SDS011;7934;48.710;9.024;2022-08-19T13:36:04;6.13;;;5.73;;
15667;SDS011;7934;48.710;9.024;2022-08-19T13:38:32;6.40;;;5.77;;
15667;SDS011;7934;48.710;9.024;2022-08-19T13:41:04;5.53;;;5.07;;
15667;SDS011;7934;48.710;9.024;2022-08-19T13:43:32;6.23;;;5.60;;
15667;SDS011;7934;48.710;9.024;2022-08-19T13:46:07;8.00;;;5.40;;
15667;SDS011;7934;48.710;9.024;2022-08-19T13:48:35;5.73;;;5.33;;
15667;SDS011;7934;48.710;9.024;2022-08-19T13:51:04;6.37;;;5.83;;
15667;SDS011;7934;48.710;9.024;2022-08-19T13:53:34;7.60;;;7.00;;
15667;SDS011;7934;48.710;9.024;2022-08-19T13:56:04;7.33;;;6.63;;
15667;SDS011;7934;48.710;9.024;2022-08-19T13:58:32;7.60;;;6.83;;
15667;SDS011;7934;48.710;9.024;2022-08-19T14:00:59;7.20;;;6.60;;
15667;SDS011;7934;48.710;9.024;2022-08-19T14:03:27;11.20;;;7.27;;
15667;SDS011;7934;48.710;9.024;2022-08-19T14:05:54;8.63;;;7.83;;
15667;SDS011;7934;48.710;9.024;2022-08-19T14:08:22;8.30;;;7.77;;
15667;SDS011;7934;48.710;9.024;2022-08-19T14:10:49;7.00;;;6.27;;
15667;SDS011;7934;48.710;9.024;2022-08-19T14:13:18;7.63;;;7.13;;
15667;SDS011;7934;48.710;9.024;2022-08-19T14:15:45;7.70;;;7.07;;
15667;SDS011;7934;48.710;9.024;2022-08-19T14:18:13;7.43;;;6.43;;
15667;SDS011;7934;48.710;9.024;2022-08-19T14:20:42;8.30;;;7.60;;
15667;SDS011;7934;48.710;9.024;2022-08-19T14:23:09;8.30;;;7.60;;
15667;SDS011;7934;48.710;9.024;2022-08-19T14:25:37;9.97;;;6.57;;
15667;SDS011;7934;48.710;9.024;2022-08-19T14:28:04;7.77;;;7.03;;
15667;SDS011;7934;48.710;9.024;2022-08-19T14:30:33;8.07;;;7.27;;
15667;SDS011;7934;48.710;9.024;2022-08-19T14:33:03;7.60;;;7.00;;
15667;SDS011;7934;48.710;9.024;2022-08-19T14:35:31;7.30;;;6.47;;
15667;SDS011;7934;48.710;9.024;2022-08-19T14:38:01;6.83;;;6.43;;
15667;SDS011;7934;48.710;9.024;2022-08-19T14:40:29;7.00;;;6.50;;
15667;SDS011;7934;48.710;9.024;2022-08-19T14:42:57;7.07;;;6.37;;
15667;SDS011;7934;48.710;9.024;2022-08-19T14:45:29;7.17;;;6.43;;
15667;SDS011;7934;48.710;9.024;2022-08-19T14:47:56;6.83;;;6.43;;